sensor_id;sensor_type;location;lat;lon;timestamp;P1;durP1;ratioP1;P2;durP2;ratioP2
73670;SDS011;61968;48.178;11.566;2023-06-26T00:02:13;7.45;;;5.35;;
73670;SDS011;61968;48.178;11.566;2023-06-26T00:04:41;9.90;;;5.88;;
73670;SDS011;61968;48.178;11.566;2023-06-26T00:07:09;10.77;;;6.82;;
73670;SDS011;61968;48.178;11.566;2023-06-26T00:09:35;7.18;;;5.53;;
73670;SDS011;61968;48.178;11.566;2023-06-26T00:12:02;11.18;;;6.00;;
73670;SDS011;61968;48.178;11.566;2023-06-26T00:14:30;10.25;;;5.88;;
73670;SDS011;61968;48.178;11.566;2023-06-26T00:16:57;6.47;;;5.75;;
73670;SDS011;61968;48.178;11.566;2023-06-26T00:19:23;6.80;;;5.15;;
73670;SDS011;61968;48.178;11.566;2023-06-26T00:21:50;6.97;;;5.72;;
73670;SDS011;61968;48.178;11.566;2023-06-26T00:24:17;7.28;;;6.03;;
73670;SDS011;61968;48.178;11.566;2023-06-26T00:26:46;8.35;;;6.50;;
73670;SDS011;61968;48.178;11.566;2023-06-26T00:29:13;8.00;;;5.53;;
73670;SDS011;61968;48.178;11.566;2023-06-26T00:31:41;8.23;;;6.15;;
73670;SDS011;61968;48.178;11.566;2023-06-26T00:34:07;6.25;;;5.45;;
73670;SDS011;61968;48.178;11.566;2023-06-26T00:36:33;7.82;;;6.03;;
73670;SDS011;61968;48.178;11.566;2023-06-26T00:39:00;6.55;;;5.55;;
73670;SDS011;61968;48.178;11.566;2023-06-26T00:41:28;7.20;;;5.45;;
73670;SDS011;61968;48.178;11.566;2023-06-26T00:43:54;10.82;;;5.47;;
73670;SDS011;61968;48.178;11.566;2023-06-26T00:46:21;6.30;;;4.97;;
73670;SDS011;61968;48.178;11.566;2023-06-26T00:48:51;8.07;;;5.63;;
73670;SDS011;61968;48.178;11.566;2023-06-26T00:51:18;5.30;;;4.78;;
73670;SDS011;61968;48.178;11.566;2023-06-26T00:53:45;7.97;;;5.05;;
73670;SDS011;61968;48.178;11.566;2023-06-26T00:56:11;10.48;;;5.50;;
73670;SDS011;61968;48.178;11.566;2023-06-26T00:58:38;7.60;;;5.95;;
73670;SDS011;61968;48.178;11.566;2023-06-26T01:01:04;7.43;;;5.47;;
73670;SDS011;61968;48.178;11.566;2023-06-26T01:03:33;5.70;;;4.47;;
73670;SDS011;61968;48.178;11.566;2023-06-26T01:06:03;7.65;;;5.65;;
73670;SDS011;61968;48.178;11.566;2023-06-26T01:08:30;7.05;;;5.22;;
73670;SDS011;61968;48.178;11.566;2023-06-26T01:10:57;6.78;;;5.20;;
73670;SDS011;61968;48.178;11.566;2023-06-26T01:13:25;7.53;;;5.43;;
73670;SDS011;61968;48.178;11.566;2023-06-26T01:15:52;7.85;;;5.15;;
73670;SDS011;61968;48.178;11.566;2023-06-26T01:18:19;8.85;;;5.63;;
73670;SDS011;61968;48.178;11.566;2023-06-26T01:20:46;7.82;;;6.03;;
73670;SDS011;61968;48.178;11.566;2023-06-26T01:23:15;9.43;;;5.97;;
73670;SDS011;61968;48.178;11.566;2023-06-26T01:25:51;8.65;;;5.90;;
73670;SDS011;61968;48.178;11.566;2023-06-26T01:28:28;6.15;;;5.25;;
73670;SDS011;61968;48.178;11.566;2023-06-26T01:30:56;9.40;;;5.97;;
73670;SDS011;61968;48.178;11.566;2023-06-26T01:33:23;9.68;;;6.63;;
73670;SDS011;61968;48.178;11.566;2023-06-26T01:35:50;11.27;;;6.47;;
73670;SDS011;61968;48.178;11.566;2023-06-26T01:38:17;6.70;;;5.65;;
73670;SDS011;61968;48.178;11.566;2023-06-26T01:40:46;9.63;;;5.75;;
73670;SDS011;61968;48.178;11.566;2023-06-26T01:43:15;8.40;;;6.20;;
73670;SDS011;61968;48.178;11.566;2023-06-26T01:45:49;8.73;;;5.68;;
73670;SDS011;61968;48.178;11.566;2023-06-26T01:48:22;8.50;;;5.85;;
73670;SDS011;61968;48.178;11.566;2023-06-26T01:50:52;7.50;;;5.97;;
73670;SDS011;61968;48.178;11.566;2023-06-26T01:53:21;9.07;;;6.15;;
73670;SDS011;61968;48.178;11.566;2023-06-26T01:55:51;7.72;;;5.70;;
73670;SDS011;61968;48.178;11.566;2023-06-26T01:58:22;7.70;;;5.85;;
73670;SDS011;61968;48.178;11.566;2023-06-26T02:00:52;12.75;;;6.50;;
73670;SDS011;61968;48.178;11.566;2023-06-26T02:03:19;7.47;;;5.63;;
73670;SDS011;61968;48.178;11.566;2023-06-26T02:05:49;9.60;;;4.85;;
73670;SDS011;61968;48.178;11.566;2023-06-26T02:08:15;9.60;;;6.38;;
73670;SDS011;61968;48.178;11.566;2023-06-26T02:10:42;7.53;;;6.30;;
73670;SDS011;61968;48.178;11.566;2023-06-26T02:13:08;8.32;;;6.18;;
73670;SDS011;61968;48.178;11.566;2023-06-26T02:15:35;7.68;;;5.20;;
73670;SDS011;61968;48.178;11.566;2023-06-26T02:18:02;7.70;;;5.25;;
73670;SDS011;61968;48.178;11.566;2023-06-26T02:20:29;8.55;;;5.80;;
73670;SDS011;61968;48.178;11.566;2023-06-26T02:22:55;10.25;;;5.95;;
73670;SDS011;61968;48.178;11.566;2023-06-26T02:25:22;8.70;;;5.68;;
73670;SDS011;61968;48.178;11.566;2023-06-26T02:27:48;6.32;;;5.18;;
73670;SDS011;61968;48.178;11.566;2023-06-26T02:30:15;7.53;;;5.68;;
73670;SDS011;61968;48.178;11.566;2023-06-26T02:32:41;7.22;;;5.70;;
73670;SDS011;61968;48.178;11.566;2023-06-26T02:35:09;8.70;;;5.88;;
73670;SDS011;61968;48.178;11.566;2023-06-26T02:37:36;9.00;;;5.45;;
73670;SDS011;61968;48.178;11.566;2023-06-26T02:40:02;9.27;;;6.50;;
73670;SDS011;61968;48.178;11.566;2023-06-26T02:42:30;10.52;;;6.32;;
73670;SDS011;61968;48.178;11.566;2023-06-26T02:44:57;7.82;;;5.82;;
73670;SDS011;61968;48.178;11.566;2023-06-26T02:47:23;9.18;;;5.85;;
73670;SDS011;61968;48.178;11.566;2023-06-26T02:49:50;8.77;;;6.32;;
73670;SDS011;61968;48.178;11.566;2023-06-26T02:52:18;7.82;;;5.53;;
73670;SDS011;61968;48.178;11.566;2023-06-26T02:54:44;10.38;;;6.07;;
73670;SDS011;61968;48.178;11.566;2023-06-26T02:57:11;8.05;;;6.18;;
73670;SDS011;61968;48.178;11.566;2023-06-26T02:59:39;8.65;;;6.13;;
73670;SDS011;61968;48.178;11.566;2023-06-26T03:02:06;14.20;;;9.63;;
73670;SDS011;61968;48.178;11.566;2023-06-26T03:04:32;15.98;;;11.85;;
73670;SDS011;61968;48.178;11.566;2023-06-26T03:07:01;17.92;;;10.57;;
73670;SDS011;61968;48.178;11.566;2023-06-26T03:09:29;12.38;;;8.93;;
73670;SDS011;61968;48.178;11.566;2023-06-26T03:11:55;12.85;;;8.48;;
73670;SDS011;61968;48.178;11.566;2023-06-26T03:14:22;10.73;;;8.32;;
73670;SDS011;61968;48.178;11.566;2023-06-26T03:16:48;8.90;;;6.75;;
73670;SDS011;61968;48.178;11.566;2023-06-26T03:19:17;9.07;;;6.45;;
73670;SDS011;61968;48.178;11.566;2023-06-26T03:21:44;11.07;;;7.13;;
73670;SDS011;61968;48.178;11.566;2023-06-26T03:24:10;7.20;;;6.18;;
73670;SDS011;61968;48.178;11.566;2023-06-26T03:26:38;8.43;;;6.20;;
73670;SDS011;61968;48.178;11.566;2023-06-26T03:29:04;12.80;;;6.57;;
73670;SDS011;61968;48.178;11.566;2023-06-26T03:31:31;9.52;;;6.70;;
73670;SDS011;61968;48.178;11.566;2023-06-26T03:33:57;12.15;;;6.68;;
73670;SDS011;61968;48.178;11.566;2023-06-26T03:36:24;11.55;;;7.45;;
73670;SDS011;61968;48.178;11.566;2023-06-26T03:38:50;8.77;;;6.60;;
73670;SDS011;61968;48.178;11.566;2023-06-26T03:41:21;7.50;;;5.85;;
73670;SDS011;61968;48.178;11.566;2023-06-26T03:43:49;13.95;;;7.20;;
73670;SDS011;61968;48.178;11.566;2023-06-26T03:46:16;9.57;;;6.13;;
73670;SDS011;61968;48.178;11.566;2023-06-26T03:48:42;9.02;;;5.75;;
73670;SDS011;61968;48.178;11.566;2023-06-26T03:51:08;6.05;;;5.43;;
73670;SDS011;61968;48.178;11.566;2023-06-26T03:53:35;11.85;;;5.93;;
73670;SDS011;61968;48.178;11.566;2023-06-26T03:56:02;8.80;;;6.03;;
73670;SDS011;61968;48.178;11.566;2023-06-26T03:58:28;11.30;;;5.95;;
73670;SDS011;61968;48.178;11.566;2023-06-26T04:00:56;7.75;;;6.03;;
73670;SDS011;61968;48.178;11.566;2023-06-26T04:03:23;12.05;;;5.50;;
73670;SDS011;61968;48.178;11.566;2023-06-26T04:05:50;7.70;;;6.25;;
73670;SDS011;61968;48.178;11.566;2023-06-26T04:08:16;7.25;;;5.45;;
73670;SDS011;61968;48.178;11.566;2023-06-26T04:10:44;9.88;;;5.63;;
73670;SDS011;61968;48.178;11.566;2023-06-26T04:13:13;11.18;;;6.10;;
73670;SDS011;61968;48.178;11.566;2023-06-26T04:15:40;8.68;;;5.30;;
73670;SDS011;61968;48.178;11.566;2023-06-26T04:18:07;8.00;;;5.32;;
73670;SDS011;61968;48.178;11.566;2023-06-26T04:20:38;11.10;;;5.85;;
73670;SDS011;61968;48.178;11.566;2023-06-26T04:23:05;7.72;;;5.20;;
73670;SDS011;61968;48.178;11.566;2023-06-26T04:25:31;7.95;;;5.60;;
73670;SDS011;61968;48.178;11.566;2023-06-26T04:27:57;17.02;;;5.88;;
73670;SDS011;61968;48.178;11.566;2023-06-26T04:30:24;12.98;;;6.32;;
73670;SDS011;61968;48.178;11.566;2023-06-26T04:32:50;10.10;;;6.55;;
73670;SDS011;61968;48.178;11.566;2023-06-26T04:35:18;8.88;;;5.18;;
73670;SDS011;61968;48.178;11.566;2023-06-26T04:37:46;10.38;;;5.75;;
73670;SDS011;61968;48.178;11.566;2023-06-26T04:40:12;9.20;;;5.82;;
73670;SDS011;61968;48.178;11.566;2023-06-26T04:42:39;10.75;;;6.32;;
73670;SDS011;61968;48.178;11.566;2023-06-26T04:45:06;13.23;;;5.53;;
73670;SDS011;61968;48.178;11.566;2023-06-26T04:47:33;7.18;;;5.38;;
73670;SDS011;61968;48.178;11.566;2023-06-26T04:49:59;9.57;;;5.45;;
73670;SDS011;61968;48.178;11.566;2023-06-26T04:52:27;9.35;;;6.05;;
73670;SDS011;61968;48.178;11.566;2023-06-26T04:54:53;8.30;;;5.20;;
73670;SDS011;61968;48.178;11.566;2023-06-26T04:57:20;13.52;;;6.55;;
73670;SDS011;61968;48.178;11.566;2023-06-26T04:59:46;7.43;;;5.95;;
73670;SDS011;61968;48.178;11.566;2023-06-26T05:02:13;9.68;;;6.20;;
73670;SDS011;61968;48.178;11.566;2023-06-26T05:04:40;10.65;;;6.05;;
73670;SDS011;61968;48.178;11.566;2023-06-26T05:07:07;7.40;;;5.40;;
73670;SDS011;61968;48.178;11.566;2023-06-26T05:09:35;8.38;;;5.20;;
73670;SDS011;61968;48.178;11.566;2023-06-26T05:12:01;7.80;;;5.38;;
73670;SDS011;61968;48.178;11.566;2023-06-26T05:14:29;9.00;;;6.43;;
73670;SDS011;61968;48.178;11.566;2023-06-26T05:16:55;7.70;;;5.75;;
73670;SDS011;61968;48.178;11.566;2023-06-26T05:19:22;9.65;;;5.60;;
73670;SDS011;61968;48.178;11.566;2023-06-26T05:21:48;13.45;;;5.63;;
73670;SDS011;61968;48.178;11.566;2023-06-26T05:24:16;6.45;;;5.15;;
73670;SDS011;61968;48.178;11.566;2023-06-26T05:26:44;10.05;;;5.43;;
73670;SDS011;61968;48.178;11.566;2023-06-26T05:29:11;6.57;;;5.50;;
73670;SDS011;61968;48.178;11.566;2023-06-26T05:31:40;7.43;;;4.80;;
73670;SDS011;61968;48.178;11.566;2023-06-26T05:34:07;8.07;;;5.47;;
73670;SDS011;61968;48.178;11.566;2023-06-26T05:36:36;7.38;;;5.13;;
73670;SDS011;61968;48.178;11.566;2023-06-26T05:39:04;6.70;;;5.13;;
73670;SDS011;61968;48.178;11.566;2023-06-26T05:41:32;7.60;;;5.65;;
73670;SDS011;61968;48.178;11.566;2023-06-26T05:44:00;8.35;;;6.22;;
73670;SDS011;61968;48.178;11.566;2023-06-26T05:46:26;8.32;;;5.35;;
73670;SDS011;61968;48.178;11.566;2023-06-26T05:48:53;6.45;;;5.07;;
73670;SDS011;61968;48.178;11.566;2023-06-26T05:51:19;7.65;;;5.30;;
73670;SDS011;61968;48.178;11.566;2023-06-26T05:53:46;8.20;;;5.53;;
73670;SDS011;61968;48.178;11.566;2023-06-26T05:56:13;10.00;;;5.70;;
73670;SDS011;61968;48.178;11.566;2023-06-26T05:58:40;8.18;;;5.55;;
73670;SDS011;61968;48.178;11.566;2023-06-26T06:01:10;5.72;;;5.10;;
73670;SDS011;61968;48.178;11.566;2023-06-26T06:03:36;7.82;;;4.63;;
73670;SDS011;61968;48.178;11.566;2023-06-26T06:06:03;7.35;;;5.38;;
73670;SDS011;61968;48.178;11.566;2023-06-26T06:08:30;6.75;;;5.35;;
73670;SDS011;61968;48.178;11.566;2023-06-26T06:10:56;9.02;;;5.03;;
73670;SDS011;61968;48.178;11.566;2023-06-26T06:13:23;7.63;;;4.95;;
73670;SDS011;61968;48.178;11.566;2023-06-26T06:15:49;6.00;;;4.75;;
73670;SDS011;61968;48.178;11.566;2023-06-26T06:18:17;8.02;;;5.63;;
73670;SDS011;61968;48.178;11.566;2023-06-26T06:20:44;7.18;;;4.68;;
73670;SDS011;61968;48.178;11.566;2023-06-26T06:23:10;8.73;;;5.38;;
73670;SDS011;61968;48.178;11.566;2023-06-26T06:25:37;6.60;;;5.20;;
73670;SDS011;61968;48.178;11.566;2023-06-26T06:28:04;6.85;;;4.72;;
73670;SDS011;61968;48.178;11.566;2023-06-26T06:30:30;5.60;;;4.13;;
73670;SDS011;61968;48.178;11.566;2023-06-26T06:32:57;6.95;;;4.45;;
73670;SDS011;61968;48.178;11.566;2023-06-26T06:35:25;14.50;;;6.53;;
73670;SDS011;61968;48.178;11.566;2023-06-26T06:37:51;7.22;;;5.82;;
73670;SDS011;61968;48.178;11.566;2023-06-26T06:40:18;6.68;;;5.35;;
73670;SDS011;61968;48.178;11.566;2023-06-26T06:42:47;8.50;;;4.82;;
73670;SDS011;61968;48.178;11.566;2023-06-26T06:45:13;6.82;;;5.18;;
73670;SDS011;61968;48.178;11.566;2023-06-26T06:47:39;9.85;;;5.05;;
73670;SDS011;61968;48.178;11.566;2023-06-26T06:50:06;6.13;;;4.68;;
73670;SDS011;61968;48.178;11.566;2023-06-26T06:52:38;9.05;;;4.60;;
73670;SDS011;61968;48.178;11.566;2023-06-26T06:55:05;7.90;;;5.75;;
73670;SDS011;61968;48.178;11.566;2023-06-26T06:57:35;14.20;;;5.45;;
73670;SDS011;61968;48.178;11.566;2023-06-26T07:00:03;7.97;;;5.85;;
73670;SDS011;61968;48.178;11.566;2023-06-26T07:02:30;6.97;;;5.03;;
73670;SDS011;61968;48.178;11.566;2023-06-26T07:04:57;7.65;;;4.78;;
73670;SDS011;61968;48.178;11.566;2023-06-26T07:07:23;7.50;;;5.50;;
73670;SDS011;61968;48.178;11.566;2023-06-26T07:09:56;5.00;;;4.50;;
73670;SDS011;61968;48.178;11.566;2023-06-26T07:12:23;5.47;;;4.68;;
73670;SDS011;61968;48.178;11.566;2023-06-26T07:14:50;5.35;;;4.85;;
73670;SDS011;61968;48.178;11.566;2023-06-26T07:17:16;6.07;;;5.00;;
73670;SDS011;61968;48.178;11.566;2023-06-26T07:19:43;6.38;;;4.70;;
73670;SDS011;61968;48.178;11.566;2023-06-26T07:22:09;5.43;;;4.75;;
73670;SDS011;61968;48.178;11.566;2023-06-26T07:24:36;5.88;;;5.07;;
73670;SDS011;61968;48.178;11.566;2023-06-26T07:27:04;6.30;;;4.78;;
73670;SDS011;61968;48.178;11.566;2023-06-26T07:29:30;6.72;;;5.22;;
73670;SDS011;61968;48.178;11.566;2023-06-26T07:31:57;8.25;;;5.70;;
73670;SDS011;61968;48.178;11.566;2023-06-26T07:34:23;5.93;;;4.65;;
73670;SDS011;61968;48.178;11.566;2023-06-26T07:36:50;9.52;;;5.10;;
73670;SDS011;61968;48.178;11.566;2023-06-26T07:39:16;5.93;;;5.28;;
73670;SDS011;61968;48.178;11.566;2023-06-26T07:41:43;6.10;;;4.85;;
73670;SDS011;61968;48.178;11.566;2023-06-26T07:44:11;7.68;;;5.60;;
73670;SDS011;61968;48.178;11.566;2023-06-26T07:46:37;5.75;;;4.97;;
73670;SDS011;61968;48.178;11.566;2023-06-26T07:49:04;6.95;;;5.57;;
73670;SDS011;61968;48.178;11.566;2023-06-26T07:51:30;6.25;;;4.97;;
73670;SDS011;61968;48.178;11.566;2023-06-26T07:53:58;8.05;;;4.60;;
73670;SDS011;61968;48.178;11.566;2023-06-26T07:56:24;5.15;;;4.45;;
73670;SDS011;61968;48.178;11.566;2023-06-26T07:58:51;7.28;;;5.32;;
73670;SDS011;61968;48.178;11.566;2023-06-26T08:01:19;9.02;;;5.57;;
73670;SDS011;61968;48.178;11.566;2023-06-26T08:03:45;4.60;;;4.10;;
73670;SDS011;61968;48.178;11.566;2023-06-26T08:06:12;8.32;;;5.47;;
73670;SDS011;61968;48.178;11.566;2023-06-26T08:08:38;6.07;;;5.15;;
73670;SDS011;61968;48.178;11.566;2023-06-26T08:11:05;7.45;;;5.25;;
73670;SDS011;61968;48.178;11.566;2023-06-26T08:13:31;7.38;;;5.53;;
73670;SDS011;61968;48.178;11.566;2023-06-26T08:15:57;8.90;;;5.55;;
73670;SDS011;61968;48.178;11.566;2023-06-26T08:18:25;10.80;;;5.55;;
73670;SDS011;61968;48.178;11.566;2023-06-26T08:20:52;7.80;;;5.38;;
73670;SDS011;61968;48.178;11.566;2023-06-26T08:23:18;6.65;;;5.10;;
73670;SDS011;61968;48.178;11.566;2023-06-26T08:25:45;6.70;;;5.50;;
73670;SDS011;61968;48.178;11.566;2023-06-26T08:28:12;6.25;;;4.53;;
73670;SDS011;61968;48.178;11.566;2023-06-26T08:30:38;6.07;;;5.13;;
73670;SDS011;61968;48.178;11.566;2023-06-26T08:33:05;6.40;;;5.20;;
73670;SDS011;61968;48.178;11.566;2023-06-26T08:35:36;7.18;;;5.40;;
73670;SDS011;61968;48.178;11.566;2023-06-26T08:38:03;5.20;;;4.70;;
73670;SDS011;61968;48.178;11.566;2023-06-26T08:40:29;8.65;;;4.95;;
73670;SDS011;61968;48.178;11.566;2023-06-26T08:42:58;11.13;;;6.10;;
73670;SDS011;61968;48.178;11.566;2023-06-26T08:45:24;7.57;;;5.32;;
73670;SDS011;61968;48.178;11.566;2023-06-26T08:47:53;7.72;;;5.35;;
73670;SDS011;61968;48.178;11.566;2023-06-26T08:50:24;7.45;;;5.85;;
73670;SDS011;61968;48.178;11.566;2023-06-26T08:52:57;6.43;;;5.32;;
73670;SDS011;61968;48.178;11.566;2023-06-26T08:55:32;7.25;;;5.68;;
73670;SDS011;61968;48.178;11.566;2023-06-26T08:58:01;5.63;;;4.88;;
73670;SDS011;61968;48.178;11.566;2023-06-26T09:00:28;4.97;;;4.47;;
73670;SDS011;61968;48.178;11.566;2023-06-26T09:02:56;7.88;;;4.88;;
73670;SDS011;61968;48.178;11.566;2023-06-26T09:05:22;7.10;;;4.25;;
73670;SDS011;61968;48.178;11.566;2023-06-26T09:07:49;7.22;;;5.15;;
73670;SDS011;61968;48.178;11.566;2023-06-26T09:10:18;10.93;;;4.53;;
73670;SDS011;61968;48.178;11.566;2023-06-26T09:12:45;7.95;;;5.05;;
73670;SDS011;61968;48.178;11.566;2023-06-26T09:15:13;5.47;;;4.10;;
73670;SDS011;61968;48.178;11.566;2023-06-26T09:17:40;8.13;;;4.63;;
73670;SDS011;61968;48.178;11.566;2023-06-26T09:20:08;7.45;;;4.47;;
73670;SDS011;61968;48.178;11.566;2023-06-26T09:22:37;8.55;;;4.85;;
73670;SDS011;61968;48.178;11.566;2023-06-26T09:25:04;9.75;;;5.03;;
73670;SDS011;61968;48.178;11.566;2023-06-26T09:27:33;7.68;;;4.95;;
73670;SDS011;61968;48.178;11.566;2023-06-26T09:30:00;6.45;;;5.00;;
73670;SDS011;61968;48.178;11.566;2023-06-26T09:32:27;4.95;;;4.38;;
73670;SDS011;61968;48.178;11.566;2023-06-26T09:34:54;4.28;;;3.88;;
73670;SDS011;61968;48.178;11.566;2023-06-26T09:37:21;6.63;;;4.70;;
73670;SDS011;61968;48.178;11.566;2023-06-26T09:39:50;7.22;;;5.07;;
73670;SDS011;61968;48.178;11.566;2023-06-26T09:42:17;6.30;;;5.07;;
73670;SDS011;61968;48.178;11.566;2023-06-26T09:44:45;4.35;;;3.95;;
73670;SDS011;61968;48.178;11.566;2023-06-26T09:47:13;6.00;;;3.92;;
73670;SDS011;61968;48.178;11.566;2023-06-26T09:49:42;7.63;;;4.68;;
73670;SDS011;61968;48.178;11.566;2023-06-26T09:52:09;9.82;;;4.50;;
73670;SDS011;61968;48.178;11.566;2023-06-26T09:54:36;4.80;;;3.83;;
73670;SDS011;61968;48.178;11.566;2023-06-26T09:57:09;5.43;;;4.40;;
73670;SDS011;61968;48.178;11.566;2023-06-26T09:59:36;5.13;;;4.40;;
73670;SDS011;61968;48.178;11.566;2023-06-26T10:02:05;4.85;;;4.13;;
73670;SDS011;61968;48.178;11.566;2023-06-26T10:04:32;5.88;;;4.28;;
73670;SDS011;61968;48.178;11.566;2023-06-26T10:07:00;6.05;;;5.35;;
73670;SDS011;61968;48.178;11.566;2023-06-26T10:09:28;4.90;;;4.30;;
73670;SDS011;61968;48.178;11.566;2023-06-26T10:11:57;4.63;;;4.10;;
73670;SDS011;61968;48.178;11.566;2023-06-26T10:14:30;4.85;;;4.15;;
73670;SDS011;61968;48.178;11.566;2023-06-26T10:16:59;7.88;;;4.43;;
73670;SDS011;61968;48.178;11.566;2023-06-26T10:19:30;4.63;;;4.22;;
73670;SDS011;61968;48.178;11.566;2023-06-26T10:21:59;6.00;;;4.00;;
73670;SDS011;61968;48.178;11.566;2023-06-26T10:24:28;5.63;;;5.00;;
73670;SDS011;61968;48.178;11.566;2023-06-26T10:26:59;5.57;;;4.38;;
73670;SDS011;61968;48.178;11.566;2023-06-26T10:29:30;5.70;;;4.32;;
73670;SDS011;61968;48.178;11.566;2023-06-26T10:31:58;5.20;;;4.28;;
73670;SDS011;61968;48.178;11.566;2023-06-26T10:34:29;5.20;;;4.00;;
73670;SDS011;61968;48.178;11.566;2023-06-26T10:37:00;6.32;;;4.60;;
73670;SDS011;61968;48.178;11.566;2023-06-26T10:39:32;5.50;;;4.03;;
73670;SDS011;61968;48.178;11.566;2023-06-26T10:42:15;5.13;;;4.25;;
73670;SDS011;61968;48.178;11.566;2023-06-26T10:44:44;4.65;;;3.90;;
73670;SDS011;61968;48.178;11.566;2023-06-26T10:47:12;7.60;;;3.90;;
73670;SDS011;61968;48.178;11.566;2023-06-26T10:49:56;6.55;;;4.13;;
73670;SDS011;61968;48.178;11.566;2023-06-26T10:52:42;6.65;;;5.10;;
73670;SDS011;61968;48.178;11.566;2023-06-26T10:55:09;5.43;;;3.85;;
73670;SDS011;61968;48.178;11.566;2023-06-26T10:57:36;6.25;;;4.68;;
73670;SDS011;61968;48.178;11.566;2023-06-26T11:00:09;4.10;;;3.70;;
73670;SDS011;61968;48.178;11.566;2023-06-26T11:02:49;6.05;;;3.40;;
73670;SDS011;61968;48.178;11.566;2023-06-26T11:05:25;4.20;;;3.50;;
73670;SDS011;61968;48.178;11.566;2023-06-26T11:08:05;3.90;;;3.60;;
73670;SDS011;61968;48.178;11.566;2023-06-26T11:10:47;4.03;;;3.63;;
73670;SDS011;61968;48.178;11.566;2023-06-26T11:13:15;5.97;;;3.28;;
73670;SDS011;61968;48.178;11.566;2023-06-26T11:15:43;9.00;;;4.40;;
73670;SDS011;61968;48.178;11.566;2023-06-26T11:18:10;5.15;;;4.28;;
73670;SDS011;61968;48.178;11.566;2023-06-26T11:20:40;5.65;;;4.32;;
73670;SDS011;61968;48.178;11.566;2023-06-26T11:23:07;4.30;;;3.90;;
73670;SDS011;61968;48.178;11.566;2023-06-26T11:25:34;7.90;;;3.53;;
73670;SDS011;61968;48.178;11.566;2023-06-26T11:28:02;5.90;;;4.15;;
73670;SDS011;61968;48.178;11.566;2023-06-26T11:30:29;5.03;;;4.40;;
73670;SDS011;61968;48.178;11.566;2023-06-26T11:33:02;6.20;;;4.68;;
73670;SDS011;61968;48.178;11.566;2023-06-26T11:35:29;5.40;;;4.78;;
73670;SDS011;61968;48.178;11.566;2023-06-26T11:37:58;6.55;;;4.18;;
73670;SDS011;61968;48.178;11.566;2023-06-26T11:40:29;7.60;;;4.50;;
73670;SDS011;61968;48.178;11.566;2023-06-26T11:42:57;5.95;;;5.30;;
73670;SDS011;61968;48.178;11.566;2023-06-26T11:45:24;9.13;;;4.20;;
73670;SDS011;61968;48.178;11.566;2023-06-26T11:47:50;5.85;;;5.25;;
73670;SDS011;61968;48.178;11.566;2023-06-26T11:50:17;7.15;;;4.75;;
73670;SDS011;61968;48.178;11.566;2023-06-26T11:52:44;8.55;;;5.15;;
73670;SDS011;61968;48.178;11.566;2023-06-26T11:55:12;8.35;;;4.68;;
73670;SDS011;61968;48.178;11.566;2023-06-26T11:57:38;5.38;;;4.88;;
73670;SDS011;61968;48.178;11.566;2023-06-26T12:00:11;7.28;;;5.05;;
73670;SDS011;61968;48.178;11.566;2023-06-26T12:02:38;6.00;;;4.70;;
73670;SDS011;61968;48.178;11.566;2023-06-26T12:05:05;6.40;;;5.15;;
73670;SDS011;61968;48.178;11.566;2023-06-26T12:07:33;9.27;;;4.93;;
73670;SDS011;61968;48.178;11.566;2023-06-26T12:10:01;8.35;;;5.03;;
73670;SDS011;61968;48.178;11.566;2023-06-26T12:12:31;5.00;;;4.53;;
73670;SDS011;61968;48.178;11.566;2023-06-26T12:14:58;5.93;;;5.00;;
73670;SDS011;61968;48.178;11.566;2023-06-26T12:17:26;10.20;;;8.30;;
73670;SDS011;61968;48.178;11.566;2023-06-26T12:19:52;47.78;;;25.30;;
73670;SDS011;61968;48.178;11.566;2023-06-26T12:22:19;30.00;;;18.67;;
73670;SDS011;61968;48.178;11.566;2023-06-26T12:24:46;86.65;;;51.63;;
73670;SDS011;61968;48.178;11.566;2023-06-26T12:27:13;16.30;;;7.18;;
73670;SDS011;61968;48.178;11.566;2023-06-26T12:29:46;19.15;;;10.25;;
73670;SDS011;61968;48.178;11.566;2023-06-26T12:32:16;7.63;;;6.47;;
73670;SDS011;61968;48.178;11.566;2023-06-26T12:34:46;13.38;;;8.35;;
73670;SDS011;61968;48.178;11.566;2023-06-26T12:37:14;62.03;;;36.97;;
73670;SDS011;61968;48.178;11.566;2023-06-26T12:39:47;77.28;;;44.85;;
73670;SDS011;61968;48.178;11.566;2023-06-26T12:42:15;79.55;;;48.05;;
73670;SDS011;61968;48.178;11.566;2023-06-26T12:44:44;42.25;;;23.90;;
73670;SDS011;61968;48.178;11.566;2023-06-26T12:47:11;26.30;;;16.90;;
73670;SDS011;61968;48.178;11.566;2023-06-26T12:49:40;17.75;;;12.23;;
73670;SDS011;61968;48.178;11.566;2023-06-26T12:52:07;16.65;;;11.07;;
73670;SDS011;61968;48.178;11.566;2023-06-26T12:54:36;16.52;;;9.55;;
73670;SDS011;61968;48.178;11.566;2023-06-26T12:57:04;13.27;;;7.70;;
73670;SDS011;61968;48.178;11.566;2023-06-26T12:59:31;10.15;;;8.23;;
73670;SDS011;61968;48.178;11.566;2023-06-26T13:01:59;8.50;;;5.90;;
73670;SDS011;61968;48.178;11.566;2023-06-26T13:04:26;7.78;;;6.85;;
73670;SDS011;61968;48.178;11.566;2023-06-26T13:06:53;8.80;;;6.43;;
73670;SDS011;61968;48.178;11.566;2023-06-26T13:09:20;7.68;;;5.78;;
73670;SDS011;61968;48.178;11.566;2023-06-26T13:11:47;8.77;;;6.55;;
73670;SDS011;61968;48.178;11.566;2023-06-26T13:14:13;10.88;;;6.95;;
73670;SDS011;61968;48.178;11.566;2023-06-26T13:16:40;7.63;;;5.90;;
73670;SDS011;61968;48.178;11.566;2023-06-26T13:19:08;9.70;;;6.40;;
73670;SDS011;61968;48.178;11.566;2023-06-26T13:21:34;8.02;;;5.85;;
73670;SDS011;61968;48.178;11.566;2023-06-26T13:24:01;6.68;;;5.78;;
73670;SDS011;61968;48.178;11.566;2023-06-26T13:26:29;8.10;;;5.63;;
73670;SDS011;61968;48.178;11.566;2023-06-26T13:28:55;9.80;;;6.25;;
73670;SDS011;61968;48.178;11.566;2023-06-26T13:31:22;8.40;;;5.97;;
73670;SDS011;61968;48.178;11.566;2023-06-26T13:33:48;5.57;;;5.05;;
73670;SDS011;61968;48.178;11.566;2023-06-26T13:36:18;5.93;;;5.10;;
73670;SDS011;61968;48.178;11.566;2023-06-26T13:38:46;6.15;;;5.18;;
73670;SDS011;61968;48.178;11.566;2023-06-26T13:41:14;7.40;;;5.63;;
73670;SDS011;61968;48.178;11.566;2023-06-26T13:43:41;7.75;;;5.72;;
73670;SDS011;61968;48.178;11.566;2023-06-26T13:46:07;7.68;;;6.25;;
73670;SDS011;61968;48.178;11.566;2023-06-26T13:48:34;6.75;;;5.78;;
73670;SDS011;61968;48.178;11.566;2023-06-26T13:51:00;7.95;;;6.00;;
73670;SDS011;61968;48.178;11.566;2023-06-26T13:53:28;6.63;;;5.25;;
73670;SDS011;61968;48.178;11.566;2023-06-26T13:55:55;6.75;;;5.40;;
73670;SDS011;61968;48.178;11.566;2023-06-26T13:58:21;6.45;;;5.38;;
73670;SDS011;61968;48.178;11.566;2023-06-26T14:00:51;8.50;;;6.00;;
73670;SDS011;61968;48.178;11.566;2023-06-26T14:03:18;6.55;;;5.80;;
73670;SDS011;61968;48.178;11.566;2023-06-26T14:05:44;7.10;;;4.75;;
73670;SDS011;61968;48.178;11.566;2023-06-26T14:08:11;7.63;;;5.57;;
73670;SDS011;61968;48.178;11.566;2023-06-26T14:10:39;7.40;;;5.53;;
73670;SDS011;61968;48.178;11.566;2023-06-26T14:13:05;10.75;;;5.40;;
73670;SDS011;61968;48.178;11.566;2023-06-26T14:15:33;7.32;;;4.82;;
73670;SDS011;61968;48.178;11.566;2023-06-26T14:18:00;8.10;;;5.90;;
73670;SDS011;61968;48.178;11.566;2023-06-26T14:20:29;6.03;;;5.45;;
73670;SDS011;61968;48.178;11.566;2023-06-26T14:22:57;6.95;;;5.75;;
73670;SDS011;61968;48.178;11.566;2023-06-26T14:25:24;6.78;;;6.07;;
73670;SDS011;61968;48.178;11.566;2023-06-26T14:27:54;7.43;;;6.18;;
73670;SDS011;61968;48.178;11.566;2023-06-26T14:30:21;8.93;;;5.82;;
73670;SDS011;61968;48.178;11.566;2023-06-26T14:32:47;7.25;;;6.05;;
73670;SDS011;61968;48.178;11.566;2023-06-26T14:35:14;7.00;;;6.07;;